ěÝzenÝ letovÚho provozu ╚eskÚ republiky
Letiste: LKMT Aktualizace: 19.01.2021 16:00:25  UTC
 METAR LKMT 19.01. 16:00 ...
METAR LKMT 191600Z 21015KT CAVOK 02/M02 Q1012 R04/29//95 NOSIG RMK REG QNH 1005=
 TAF LKMT 19.01. 11:00 ...
TAF LKMT 191100Z 1912/2018 22014KT 9999 BKN025      TEMPO 1912/2018 24016G28KT      TEMPO 1912/2008 -SN BKN012      PROB30 TEMPO 1919/2003 23020G36KT 3000 SN OVC005      BECMG 2008/2011 CAVOK=